Latest Coastal Weather Observations for Swan Island

IDT60701

Issued at 6:11 pm EDT Sunday 1 February 2015 (issued every 10 minutes, with the page automatically refreshed every 10 minutes)

About coastal observations | Map of coastal stations | Coastal observations for TAS | Marine services | Other Formats
Station Details ID: 092123 Name: SWAN ISLAND Lat: -40.73 Lon: 148.12 Height: 15.0 m
Data from the previous 72 hours. | See also: Recent months at Swan Island
Date/Time
EDT
Temp

°C
Wind Pressure Rain
since 9am
mm
Weather Cloud Vis
km
Sea
Height
m
Swell
Dir
 
Speed
knots
Gust
knots
hPa Trend Height
m
Period
s
Dir
01/06:00pm 16.0 SE 17 20 1013.4 - 0.0 - - - - - - -
01/05:30pm 16.5 SE 17 23 1013.2 - 0.0 - - - - - - -
01/05:00pm 16.5 SE 17 23 1013.0 - 0.0 - - - - - - -
01/04:30pm 16.9 SE 17 23 1012.8 - 0.0 - - - - - - -
01/04:00pm 18.1 SE 16 21 1012.7 - 0.0 - - - - - - -
01/03:30pm 17.4 SE 15 19 1012.5 - 0.0 - - - - - - -
01/03:00pm 17.3 SE 17 21 1012.3 - 0.0 - - - - - - -
01/02:30pm 17.3 ESE 15 19 1012.2 - 0.0 - - - - - - -
01/02:00pm 17.0 SE 16 20 1012.2 - 0.0 - - - - - - -
01/01:30pm 17.1 ESE 15 20 1012.1 - 0.0 - - - - - - -
01/01:00pm 17.2 ESE 17 21 1011.9 - 0.0 - - - - - - -
01/12:30pm 17.8 ESE 14 19 1012.1 - 0.0 - - - - - - -
01/12:00pm 17.8 SE 13 18 1012.3 - 0.0 - - - - - - -
01/11:30am 18.3 SE 10 14 1012.3 - 0.0 - - - - - - -
01/11:00am 18.7 SE 9 12 1012.4 - 0.0 - - - - - - -
01/10:30am 18.3 SSE 12 16 1012.3 - 0.0 - - - - - - -
01/10:00am 17.3 SSE 12 17 1012.1 - 0.0 - - - - - - -
01/09:30am 16.4 SSE 14 20 1011.9 - 0.0 - - - - - - -
01/09:00am 16.5 SSE 17 23 1011.7 - 0.4 - - - - - - -
01/08:30am 15.4 SSE 15 20 1011.4 - 0.4 - - - - - - -
01/08:00am 15.2 SSE 18 24 1010.8 - 0.4 - - - - - - -
01/07:30am 15.1 SSE 17 21 1010.6 - 0.4 - - - - - - -
01/07:00am 14.9 SSE 15 21 1010.4 - 0.4 - - - - - - -
01/06:30am 14.7 SSE 17 20 1010.0 - 0.4 - - - - - - -
01/06:00am 14.4 SSE 15 21 1009.6 - 0.4 - - - - - - -
01/05:30am 14.7 SSE 16 20 1009.4 - 0.4 - - - - - - -
01/05:00am 14.7 SSE 11 15 1009.4 - 0.4 - - - - - - -
01/04:30am 14.9 SSE 11 15 1009.2 - 0.4 - - - - - - -
01/04:00am 15.2 SSE 13 17 1009.2 - 0.4 - - - - - - -
01/03:30am 15.3 SSE 14 18 1009.4 - 0.4 - - - - - - -
01/03:00am 15.1 SSE 14 17 1009.4 - 0.4 - - - - - - -
01/02:30am 15.1 SSE 13 16 1009.4 - 0.4 - - - - - - -
01/02:00am 15.1 SSE 10 14 1009.4 - 0.4 - - - - - - -
01/01:30am 15.2 SSE 11 13 1009.6 - 0.4 - - - - - - -
01/01:00am 15.4 SE 9 13 1009.7 - 0.4 - - - - - - -
01/12:30am 15.2 SE 6 8 1009.8 - 0.4 - - - - - - -
01/12:00am 15.2 SE 4 6 1009.9 - 0.4 - - - - - - -
 
Date/Time
EDT
Temp

°C
Wind Pressure Rain
since 9am
mm
Weather Cloud Vis
km
Sea
Height
m
Swell
Dir
 
Speed
knots
Gust
knots
hPa Trend Height
m
Period
s
Dir
31/11:30pm 15.3 SE 5 6 1010.0 - 0.4 - - - - - - -
31/11:00pm 15.3 SE 5 7 1010.0 - 0.4 - - - - - - -
31/10:30pm 15.3 SE 5 7 1010.1 - 0.4 - - - - - - -
31/10:00pm 15.3 SSE 7 9 1010.0 - 0.4 - - - - - - -
31/09:30pm 15.6 SE 10 13 1009.9 - 0.2 - - - - - - -
31/09:00pm 15.8 SE 9 11 1009.4 - 0.2 - - - - - - -
31/08:30pm 15.7 SE 10 13 1009.0 - 0.2 - - - - - - -
31/08:00pm 15.7 SE 11 14 1008.7 - 0.2 - - - - - - -
31/07:30pm 15.9 SE 13 16 1008.5 - 0.2 - - - - - - -
31/07:00pm 16.7 SSE 8 12 1008.2 - 0.2 - - - - - - -
31/06:30pm 16.8 SSE 8 11 1007.9 - 0.2 - - - - - - -
31/06:00pm 16.9 SSE 8 11 1007.6 - 0.2 Recent precip. - - - - - -
31/05:30pm 17.4 SSE 8 11 1007.6 - 0.0 - - - - - - -
31/05:00pm 17.7 SSE 8 10 1007.6 - 0.0 - - - - - - -
31/04:30pm 17.0 SSE 9 12 1007.6 - 0.0 - - - - - - -
31/04:00pm 17.2 SSE 10 14 1007.6 - 0.0 - - - - - - -
31/03:30pm 18.6 S 11 15 1007.5 - 0.0 - - - - - - -
31/03:00pm 18.7 SSE 10 14 1007.3 - 0.0 - - - - - - -
31/02:30pm 19.0 S 8 11 1007.3 - 0.0 - - - - - - -
31/02:00pm 18.9 S 9 13 1007.2 - 0.0 - - - - - - -
31/01:30pm 19.0 S 6 11 1007.1 - 0.0 - - - - - - -
31/01:00pm 19.2 S 8 13 1007.3 - 0.0 - - - - - - -
31/12:30pm 18.4 SSE 7 13 1007.3 - 0.0 - - - - - - -
31/12:00pm 18.5 S 7 14 1007.4 - 0.0 - - - - - - -
31/11:30am 18.1 SSW 7 11 1007.6 - 0.0 - - - - - - -
31/11:00am 18.0 SSW 5 10 1007.8 - 0.0 - - - - - - -
31/10:30am 17.3 SW 4 8 1008.0 - 0.0 - - - - - - -
31/10:00am 17.5 SSW 5 9 1007.9 - 0.0 - - - - - - -
31/09:30am 17.0 SW 4 7 1007.8 - 0.0 - - - - - - -
31/09:00am 16.4 SW 4 7 1007.7 - 2.4 - - - - - - -
31/08:30am 15.7 SW 5 7 1007.6 - 2.4 - - - - - - -
31/08:00am 15.2 SSW 3 5 1007.6 - 2.4 - - - - - - -
31/07:30am 14.6 SW 3 5 1007.6 - 2.4 - - - - - - -
31/07:00am 14.3 SSW 5 7 1007.4 - 2.4 - - - - - - -
31/06:30am 14.1 SW 5 7 1007.4 - 2.4 - - - - - - -
31/06:00am 13.4 WSW 6 8 1007.3 - 2.4 - - - - - - -
31/05:30am 13.4 WSW 5 6 1007.2 - 2.4 - - - - - - -
31/05:00am 13.1 WSW 5 6 1007.0 - 2.4 - - - - - - -
31/04:30am 13.0 WSW 6 9 1007.3 - 2.4 - - - - - - -
31/04:00am 13.1 WSW 5 7 1007.4 - 2.4 - - - - - - -
31/03:30am 13.0 WSW 6 9 1007.7 - 2.4 - - - - - - -
31/03:00am 12.8 WSW 5 7 1007.9 - 2.2 Rain - - - - - -
31/02:30am 12.8 WSW 6 7 1008.1 - 1.6 - - - - - - -
31/02:00am 12.8 WSW 4 5 1008.5 - 1.4 - - - - - - -
31/01:30am 13.3 SW 6 9 1008.9 - 1.0 - - - - - - -
31/01:00am 13.8 SSW 7 12 1009.2 - 0.6 - - - - - - -
31/12:30am 14.0 SW 5 8 1009.4 - 0.2 - - - - - - -
31/12:00am 15.1 SSW 7 11 1009.6 - 0.0 - - - - - - -
 
Date/Time
EDT
Temp

°C
Wind Pressure Rain
since 9am
mm
Weather Cloud Vis
km
Sea
Height
m
Swell
Dir
 
Speed
knots
Gust
knots
hPa Trend Height
m
Period
s
Dir
30/11:30pm 15.2 SW 5 9 1009.9 - 0.0 - - - - - - -
30/11:00pm 15.4 SSW 6 11 1010.0 - 0.0 - - - - - - -
30/10:30pm 15.6 SSW 6 10 1010.4 - 0.0 - - - - - - -
30/10:00pm 15.6 S 7 12 1010.5 - 0.0 - - - - - - -
30/09:30pm 15.9 S 9 15 1010.6 - 0.0 - - - - - - -
30/09:00pm 15.7 S 8 14 1010.5 - 0.0 - - - - - - -
30/08:30pm 15.9 S 9 15 1010.6 - 0.0 - - - - - - -
30/08:00pm 15.9 S 10 16 1010.5 - 0.0 - - - - - - -
30/07:30pm 16.1 SSW 11 19 1010.5 - 0.0 - - - - - - -
30/07:00pm 16.0 S 8 14 1010.6 - 0.0 - - - - - - -
30/06:30pm 16.0 S 12 18 1010.6 - 0.0 - - - - - - -
30/06:00pm 16.2 S 17 23 1010.6 - 0.0 - - - - - - -
30/05:46pm 16.3 S 15 26 1010.8 - 0.0 - - - - - - -
30/05:30pm 16.5 S 13 18 1010.9 - 0.0 - - - - - - -
30/05:00pm 16.5 S 13 18 1011.2 - 0.0 - - - - - - -
30/04:30pm 16.7 S 13 21 1011.4 - 0.0 - - - - - - -
30/04:00pm 16.5 S 8 15 1011.7 - 0.0 - - - - - - -
30/03:30pm 16.6 S 12 17 1011.7 - 0.0 - - - - - - -
30/03:00pm 16.9 SSE 16 21 1011.9 - 0.0 - - - - - - -
30/02:30pm 17.2 SSE 16 22 1012.1 - 0.0 - - - - - - -
30/02:00pm 17.1 S 13 19 1012.4 - 0.0 - - - - - - -
30/01:30pm 17.2 SSE 17 21 1012.7 - 0.0 - - - - - - -
30/01:00pm 16.6 SSE 18 25 1012.9 - 0.0 - - - - - - -
30/12:30pm 16.9 SSE 21 28 1013.0 - 0.0 - - - - - - -
30/12:00pm 16.6 S 21 27 1013.3 - 0.0 - - - - - - -
30/11:30am 16.4 SSE 20 29 1013.7 - 0.0 - - - - - - -
30/11:00am 15.4 S 19 27 1014.0 - 0.0 - - - - - - -
30/10:33am 14.8 SSE 20 31 1014.2 - 0.0 - - - - - - -
30/10:30am 14.9 SSE 21 31 1014.2 - 0.0 - - - - - - -
30/10:26am 14.8 SSE 20 31 1014.2 - 0.0 - - - - - - -
30/10:00am 14.9 S 19 28 1014.3 - 0.0 - - - - - - -
30/09:37am 14.9 SSE 18 29 1014.4 - 0.0 - - - - - - -
30/09:30am 14.8 SSE 20 26 1014.4 - 0.0 - - - - - - -
30/09:00am 14.7 SSE 20 27 1014.4 - 1.8 - - - - - - -
30/08:30am 14.3 SSE 18 24 1014.6 - 1.8 - - - - - - -
30/08:02am 14.3 S 15 26 1014.6 - 1.8 - - - - - - -
30/08:00am 14.3 S 15 22 1014.6 - 1.8 - - - - - - -
30/07:48am 14.2 S 16 27 1014.6 - 1.8 - - - - - - -
30/07:30am 14.2 S 15 23 1014.6 - 1.8 - - - - - - -
30/07:00am 13.9 S 16 23 1014.5 - 1.8 - - - - - - -
30/06:30am 13.7 SSE 19 30 1014.6 - 1.8 - - - - - - -
30/06:29am 13.9 SSE 19 30 1014.6 - 1.8 - - - - - - -
30/06:00am 13.9 S 19 27 1014.6 - 1.8 - - - - - - -
30/05:30am 13.8 S 17 23 1014.6 - 1.8 - - - - - - -
30/05:00am 13.7 S 18 25 1014.6 - 1.8 - - - - - - -
30/04:30am 13.5 S 19 27 1014.8 - 1.8 - - - - - - -
30/04:07am 13.8 S 17 27 1015.2 - 1.8 - - - - - - -
30/04:00am 13.6 S 14 21 1015.2 - 1.8 - - - - - - -
30/03:30am 13.5 S 15 21 1015.6 - 1.8 - - - - - - -
30/03:00am 13.5 S 19 27 1016.0 - 1.8 - - - - - - -
30/02:30am 13.1 S 19 25 1016.1 - 1.8 - - - - - - -
30/02:05am 13.4 S 18 28 1016.4 - 1.8 - - - - - - -
30/02:00am 13.4 S 16 24 1016.5 - 1.8 - - - - - - -
30/01:30am 13.4 S 14 21 1017.1 - 1.8 - - - - - - -
30/01:00am 13.4 S 17 25 1017.2 - 1.8 - - - - - - -
30/12:30am 13.5 S 14 21 1017.5 - 1.8 - - - - - - -
30/12:00am 13.5 S 11 18 1017.8 - 1.8 - - - - - - -
 
Date/Time
EDT
Temp

°C
Wind Pressure Rain
since 9am
mm
Weather Cloud Vis
km
Sea
Height
m
Swell
Dir
 
Speed
knots
Gust
knots
hPa Trend Height
m
Period
s
Dir
29/11:30pm 13.6 S 13 19 1018.3 - 1.8 - - - - - - -
29/11:00pm 13.6 S 12 19 1018.6 - 1.8 - - - - - - -
29/10:30pm 13.8 S 16 22 1019.2 - 1.8 - - - - - - -
29/10:00pm 13.9 S 16 25 1019.0 - 1.8 - - - - - - -
29/09:30pm 14.2 S 14 21 1019.1 - 1.8 - - - - - - -
29/09:00pm 14.3 SSE 16 24 1019.2 - 1.8 - - - - - - -
29/08:30pm 14.5 SSE 17 23 1018.9 - 1.8 - - - - - - -
29/08:20pm 14.6 SSE 19 30 1018.9 - 1.8 - - - - - - -
29/08:00pm 14.6 SSE 21 27 1018.9 - 1.8 - - - - - - -
29/07:30pm 14.9 SSE 24 31 1018.8 - 1.8 - - - - - - -
29/07:00pm 15.3 SSE 20 28 1018.7 - 1.8 - - - - - - -
29/06:30pm 15.8 SSE 21 27 1018.6 - 1.8 - - - - - - -

Other Formats:

Comma delimited format used in spreadsheet applications
http://www.bom.gov.au/fwo/IDT60701/IDT60701.95985.axf

JavaScript Object Notation format (JSON) in row-major order
http://www.bom.gov.au/fwo/IDT60701/IDT60701.95985.json